Time;durP1;ratioP1;P1;durP2;ratioP2;P2;SDS_P1;SDS_P2;PMS_P1;PMS_P2;Temp;Humidity;BMP_temperature;BMP_pressure;BME280_temperature;BME280_humidity;BME280_pressure;Samples;Min_cycle;Max_cycle;Signal;HPM_P1;HPM_P2
2022/10/13 00:01:25;;;;;;;4.77;4.10;;;;;;;10.54;100.00;95986.56;4304647;32;20200;-62
2022/10/13 00:03:51;;;;;;;4.50;4.20;;;;;;;10.59;100.00;95983.09;4300736;33;20186;-63
2022/10/13 00:06:22;;;;;;;3.90;3.57;;;;;;;10.65;99.81;95981.97;4313034;32;20273;-63
2022/10/13 00:08:47;;;;;;;3.87;3.57;;;;;;;10.74;99.35;95977.66;4311439;33;20186;-63
2022/10/13 00:11:19;;;;;;;4.77;4.37;;;;;;;10.86;99.02;95978.09;4307552;32;20194;-63
2022/10/13 00:13:46;;;;;;;4.60;3.93;;;;;;;11.12;98.23;95980.53;4328316;32;20346;-62
2022/10/13 00:16:15;;;;;;;7.23;5.17;;;;;;;11.04;97.81;95979.25;4339288;32;20189;-63
2022/10/13 00:18:41;;;;;;;4.77;4.47;;;;;;;11.05;97.42;95974.75;4318225;32;20190;-63
2022/10/13 00:21:14;;;;;;;4.80;4.50;;;;;;;11.01;97.13;95969.97;4314457;32;20203;-62
2022/10/13 00:23:41;;;;;;;4.50;4.20;;;;;;;10.86;97.70;95970.13;4292639;33;20236;-63
2022/10/13 00:26:11;;;;;;;4.40;3.77;;;;;;;10.86;97.93;95974.63;4328650;32;20186;-63
2022/10/13 00:28:38;;;;;;;4.37;4.07;;;;;;;10.76;97.91;95975.53;4293471;33;20220;-63
2022/10/13 00:31:16;;;;;;;4.73;4.43;;;;;;;10.83;97.78;95962.72;4310866;33;20232;-63
2022/10/13 00:33:42;;;;;;;5.40;4.97;;;;;;;10.79;97.81;95966.22;4321566;32;20243;-64
2022/10/13 00:36:08;;;;;;;3.13;3.03;;;;;;;10.60;98.28;95968.75;4330418;32;20205;-63
2022/10/13 00:38:35;;;;;;;5.07;4.67;;;;;;;10.89;97.66;95968.78;4314293;33;20243;-63
2022/10/13 00:41:01;;;;;;;4.73;4.43;;;;;;;10.70;97.84;95968.66;4320712;32;20190;-63
2022/10/13 00:43:56;;;;;;;3.67;3.47;;;;;;;10.75;97.76;95975.81;4317725;32;20197;-63
2022/10/13 00:46:26;;;;;;;3.43;3.23;;;;;;;10.82;97.79;95961.13;4308069;33;20182;-63
2022/10/13 00:48:53;;;;;;;5.63;4.00;;;;;;;10.74;97.71;95969.72;4281181;33;20193;-62
2022/10/13 00:51:23;;;;;;;3.87;3.53;;;;;;;10.81;97.32;95970.16;4319293;33;20205;-63
2022/10/13 00:53:52;;;;;;;4.70;4.30;;;;;;;10.93;96.81;95972.47;4300351;32;20193;-62
2022/10/13 00:56:20;;;;;;;4.47;4.17;;;;;;;10.98;96.59;95965.25;4327577;32;20186;-62
2022/10/13 00:58:47;;;;;;;5.00;4.70;;;;;;;11.00;96.20;95957.81;4299813;33;20208;-62
2022/10/13 01:01:15;;;;;;;2.90;2.80;;;;;;;10.73;97.21;95967.31;4300608;33;20202;-63
2022/10/13 01:03:41;;;;;;;5.33;4.93;;;;;;;10.89;96.97;95966.12;4316679;32;20190;-62
2022/10/13 01:06:08;;;;;;;3.63;3.43;;;;;;;10.99;96.54;95956.22;4312628;33;20261;-63
2022/10/13 01:08:33;;;;;;;4.57;4.17;;;;;;;11.08;96.46;95955.59;4303133;33;20211;-63
2022/10/13 01:11:16;;;;;;;3.87;3.63;;;;;;;10.99;96.97;95956.22;4329500;33;20261;-62
2022/10/13 01:14:07;;;;;;;7.40;4.00;;;;;;;11.05;96.39;95958.81;4315214;32;20224;-62
2022/10/13 01:17:09;;;;;;;4.70;4.40;;;;;;;11.00;96.60;95967.63;4326936;32;20209;-63
2022/10/13 01:20:14;;;;;;;4.33;3.93;;;;;;;11.08;96.18;95963.56;4332209;32;20239;-63
2022/10/13 01:23:19;;;;;;;4.57;4.17;;;;;;;11.19;95.78;95965.06;4311415;32;20200;-62
2022/10/13 01:26:07;;;;;;;3.20;3.00;;;;;;;11.01;96.19;95962.03;4329983;32;20185;-63
2022/10/13 01:28:41;;;;;;;3.67;3.47;;;;;;;10.91;96.78;95964.78;4289315;32;20285;-64
2022/10/13 01:31:46;;;;;;;4.57;4.17;;;;;;;11.08;95.95;95964.34;4320384;32;20185;-62
2022/10/13 01:34:54;;;;;;;2.60;2.50;;;;;;;11.11;95.60;95963.81;4343590;32;20229;-62
2022/10/13 01:37:35;;;;;;;5.03;4.60;;;;;;;11.22;95.11;95959.19;4325187;32;20265;-63
2022/10/13 01:40:13;;;;;;;3.67;3.47;;;;;;;11.17;95.33;95959.25;4340332;32;20256;-63
2022/10/13 01:42:49;;;;;;;5.50;4.73;;;;;;;11.23;95.12;95966.06;4314113;33;20215;-63
2022/10/13 01:45:19;;;;;;;3.30;3.17;;;;;;;11.21;94.37;95955.75;4332545;32;20186;-62
2022/10/13 01:47:59;;;;;;;3.17;3.03;;;;;;;11.25;94.45;95962.06;4313434;33;20273;-63
2022/10/13 01:50:27;;;;;;;3.40;3.20;;;;;;;11.09;94.74;95965.94;4336352;32;20186;-62
2022/10/13 01:52:53;;;;;;;4.80;3.93;;;;;;;11.14;94.59;95967.75;4319726;32;20225;-63
2022/10/13 01:55:18;;;;;;;3.33;3.13;;;;;;;11.19;94.37;95970.38;4337591;32;20189;-63
2022/10/13 01:57:45;;;;;;;3.93;3.63;;;;;;;11.17;94.00;95967.22;4325660;32;20298;-62
2022/10/13 02:00:18;;;;;;;2.83;2.73;;;;;;;11.17;93.92;95967.22;4276323;33;20209;-62
2022/10/13 02:03:10;;;;;;;4.10;3.80;;;;;;;11.22;94.15;95967.16;4280746;33;20193;-62
2022/10/13 02:05:58;;;;;;;4.27;3.87;;;;;;;11.11;93.94;95970.97;4321608;32;20312;-62
2022/10/13 02:08:35;;;;;;;4.07;3.80;;;;;;;11.18;93.88;95966.12;4321455;32;20197;-62
2022/10/13 02:11:19;;;;;;;3.87;3.60;;;;;;;11.16;93.79;95966.41;4332250;32;20185;-62
2022/10/13 02:14:07;;;;;;;3.53;3.23;;;;;;;10.98;94.71;95973.22;4340833;32;20260;-62
2022/10/13 02:16:38;;;;;;;3.70;2.93;;;;;;;11.09;94.33;95967.81;4326174;32;20276;-63
2022/10/13 02:19:08;;;;;;;3.17;2.93;;;;;;;11.07;94.30;95972.59;4305625;32;20196;-63
2022/10/13 02:21:36;;;;;;;6.97;4.13;;;;;;;11.00;94.61;95973.75;4296495;33;20213;-63
2022/10/13 02:24:06;;;;;;;2.53;2.33;;;;;;;11.03;94.56;95972.38;4332092;32;20189;-63
2022/10/13 02:26:36;;;;;;;4.10;3.80;;;;;;;10.98;94.69;95965.25;4308924;33;20181;-63
2022/10/13 02:29:27;;;;;;;4.30;4.00;;;;;;;11.02;94.93;95976.09;4326924;32;20186;-62
2022/10/13 02:31:53;;;;;;;3.00;2.87;;;;;;;10.80;95.56;95979.22;4312298;33;20181;-62
2022/10/13 02:34:19;;;;;;;2.13;1.93;;;;;;;10.73;96.03;95976.09;4321004;33;22893;-63
2022/10/13 02:36:45;;;;;;;2.33;2.23;;;;;;;10.72;96.19;95971.84;4311892;32;20198;-62
2022/10/13 02:39:12;;;;;;;2.87;2.77;;;;;;;10.85;95.89;95965.88;4289470;33;20194;-62
2022/10/13 02:41:39;;;;;;;2.70;2.50;;;;;;;10.82;95.76;95976.25;4318257;32;20196;-63
2022/10/13 02:44:06;;;;;;;3.17;2.97;;;;;;;10.88;95.71;95964.53;4331686;32;20190;-63
2022/10/13 02:46:32;;;;;;;5.67;2.73;;;;;;;10.95;95.13;95968.47;4325929;32;20267;-63
2022/10/13 02:48:57;;;;;;;3.13;2.93;;;;;;;10.98;94.77;95967.13;4323259;33;20197;-63
2022/10/13 02:51:24;;;;;;;2.63;2.43;;;;;;;10.83;95.13;95970.69;4329333;32;20253;-62
2022/10/13 02:53:51;;;;;;;3.23;3.03;;;;;;;10.73;95.90;95968.13;4329682;32;20333;-63
2022/10/13 02:56:18;;;;;;;3.80;2.97;;;;;;;10.70;96.69;95966.03;4329604;32;20201;-63
2022/10/13 02:58:43;;;;;;;8.50;3.70;;;;;;;10.82;95.93;95960.34;4319755;32;20258;-63
2022/10/13 03:01:11;;;;;;;3.60;2.87;;;;;;;10.81;95.58;95966.72;4327595;32;20190;-63
2022/10/13 03:03:37;;;;;;;2.87;2.77;;;;;;;10.74;96.16;95972.38;4326898;32;20252;-63
2022/10/13 03:06:03;;;;;;;3.60;3.30;;;;;;;10.76;96.14;95966.78;4319359;32;20213;-63
2022/10/13 03:08:28;;;;;;;2.20;2.10;;;;;;;10.66;96.67;95962.34;4328719;32;20227;-62
2022/10/13 03:10:56;;;;;;;3.20;3.00;;;;;;;10.60;96.89;95964.22;4320630;32;20189;-63
2022/10/13 03:13:23;;;;;;;3.23;3.07;;;;;;;10.55;97.14;95961.63;4328344;32;20224;-62
2022/10/13 03:15:50;;;;;;;3.43;3.13;;;;;;;10.56;97.28;95959.78;4323508;32;20200;-62
2022/10/13 03:18:16;;;;;;;3.27;3.07;;;;;;;10.55;97.64;95955.53;4334791;32;20192;-62
2022/10/13 03:20:42;;;;;;;2.63;2.53;;;;;;;10.32;98.88;95957.00;4318543;32;20241;-62
2022/10/13 03:23:07;;;;;;;2.77;2.67;;;;;;;10.27;99.63;95954.37;4315427;32;20215;-62
2022/10/13 03:25:33;;;;;;;2.27;2.17;;;;;;;10.42;99.52;95950.84;4309817;32;20186;-62
2022/10/13 03:27:59;;;;;;;3.70;3.40;;;;;;;10.44;99.33;95948.69;4313844;32;20233;-62
2022/10/13 03:30:25;;;;;;;3.43;3.13;;;;;;;10.59;98.94;95943.31;4327831;32;20253;-62
2022/10/13 03:32:50;;;;;;;2.77;2.60;;;;;;;10.76;97.81;95941.03;4328435;32;20190;-63
2022/10/13 03:35:16;;;;;;;3.47;3.23;;;;;;;10.85;97.03;95949.97;4306000;32;20220;-63
2022/10/13 03:37:42;;;;;;;2.43;2.23;;;;;;;10.66;97.20;95947.19;4318775;32;20296;-63
2022/10/13 03:40:09;;;;;;;2.40;2.30;;;;;;;10.84;96.55;95942.28;4314591;32;20220;-63
2022/10/13 03:42:36;;;;;;;3.10;2.90;;;;;;;10.72;96.43;95944.50;4312888;33;20194;-62
2022/10/13 03:45:03;;;;;;;4.20;3.83;;;;;;;10.71;96.39;95949.03;4337725;32;20235;-63
2022/10/13 03:47:29;;;;;;;2.77;2.67;;;;;;;10.84;95.33;95952.88;4334100;32;20204;-62
2022/10/13 03:49:54;;;;;;;2.97;2.73;;;;;;;10.74;96.00;95947.69;4326303;33;20235;-62
2022/10/13 03:52:21;;;;;;;6.13;2.77;;;;;;;10.82;95.65;95957.69;4319463;32;20182;-63
2022/10/13 03:54:46;;;;;;;2.53;2.40;;;;;;;10.73;95.66;95957.50;4306234;33;20201;-62
2022/10/13 03:57:13;;;;;;;3.17;2.97;;;;;;;10.55;96.11;95963.50;4328572;32;20290;-62
2022/10/13 03:59:40;;;;;;;2.73;2.53;;;;;;;10.61;96.12;95959.72;4320700;32;20193;-62
2022/10/13 04:02:06;;;;;;;2.60;2.50;;;;;;;10.76;94.88;95964.13;4295229;32;20193;-62
2022/10/13 04:04:34;;;;;;;2.70;2.50;;;;;;;10.70;94.39;95973.97;4325228;32;20265;-63
2022/10/13 04:06:59;;;;;;;3.37;3.10;;;;;;;10.84;94.26;95968.81;4326210;32;20189;-62
2022/10/13 04:09:26;;;;;;;2.13;2.03;;;;;;;10.90;93.65;95973.81;4316288;32;20233;-62
2022/10/13 04:11:52;;;;;;;2.53;2.37;;;;;;;10.88;93.58;95977.81;4303106;33;20193;-62
2022/10/13 04:14:19;;;;;;;2.10;2.00;;;;;;;10.85;93.46;95975.72;4328045;32;20193;-62
2022/10/13 04:16:45;;;;;;;1.63;1.53;;;;;;;10.87;93.36;95970.91;4308409;33;20264;-63
2022/10/13 04:19:12;;;;;;;2.03;1.77;;;;;;;10.91;92.98;95975.41;4314519;33;20212;-62
2022/10/13 04:21:40;;;;;;;2.60;2.37;;;;;;;10.93;92.81;95975.13;4284491;33;20198;-62
2022/10/13 04:24:05;;;;;;;1.67;1.57;;;;;;;10.87;93.18;95977.03;4310368;32;20243;-62
2022/10/13 04:26:34;;;;;;;2.10;2.00;;;;;;;10.89;92.55;95972.22;4328755;32;20196;-62
2022/10/13 04:29:04;;;;;;;1.67;1.57;;;;;;;10.74;93.30;95980.31;4305756;32;20209;-63
2022/10/13 04:31:30;;;;;;;1.47;1.47;;;;;;;10.84;93.00;95974.91;4295385;33;20204;-65
2022/10/13 04:33:57;;;;;;;1.50;1.47;;;;;;;10.89;92.59;95971.44;4295401;33;20190;-62
2022/10/13 04:36:23;;;;;;;1.97;1.90;;;;;;;10.79;92.46;95980.28;4310315;33;20215;-62
2022/10/13 04:38:49;;;;;;;1.90;1.80;;;;;;;10.83;92.58;95970.69;4308802;33;20209;-62
2022/10/13 04:41:16;;;;;;;2.53;2.33;;;;;;;10.79;92.92;95976.84;4296167;33;20205;-62
2022/10/13 04:43:47;;;;;;;1.90;1.80;;;;;;;10.63;93.89;95962.88;4300114;33;20237;-62
2022/10/13 04:46:16;;;;;;;2.33;2.23;;;;;;;10.59;94.35;95964.53;4313574;33;20205;-62
2022/10/13 04:48:42;;;;;;;1.97;1.87;;;;;;;10.55;94.20;95961.63;4300396;33;20229;-62
2022/10/13 04:51:10;;;;;;;2.63;2.53;;;;;;;10.66;94.09;95965.78;4309306;33;20205;-62
2022/10/13 04:53:36;;;;;;;2.23;2.13;;;;;;;10.69;94.17;95964.44;4323293;33;20228;-63
2022/10/13 04:56:07;;;;;;;1.90;1.80;;;;;;;10.65;94.58;95971.34;4251986;33;20306;-64
2022/10/13 04:58:36;;;;;;;2.97;2.67;;;;;;;10.71;94.72;95970.25;4300614;33;20194;-62
2022/10/13 05:01:05;;;;;;;2.03;1.93;;;;;;;10.63;95.59;95968.97;4299695;33;20214;-62
2022/10/13 05:03:31;;;;;;;3.40;3.20;;;;;;;10.73;95.27;95962.81;4308589;33;20218;-62
2022/10/13 05:06:00;;;;;;;2.50;2.30;;;;;;;10.83;95.19;95960.06;4308608;33;20186;-62
2022/10/13 05:08:27;;;;;;;3.03;2.83;;;;;;;10.82;95.05;95955.81;4303993;33;20190;-62
2022/10/13 05:10:59;;;;;;;2.37;2.27;;;;;;;10.84;94.93;95948.38;4287698;33;20190;-62
2022/10/13 05:13:26;;;;;;;2.40;2.17;;;;;;;10.87;94.89;95958.44;4311786;33;20194;-62
2022/10/13 05:15:53;;;;;;;2.17;2.03;;;;;;;10.97;94.61;95958.38;4313289;33;20213;-62
2022/10/13 05:18:19;;;;;;;2.77;2.57;;;;;;;10.99;94.51;95950.91;4339067;33;20193;-63
2022/10/13 05:20:46;;;;;;;1.93;1.83;;;;;;;10.97;94.51;95957.56;4312576;32;20275;-62
2022/10/13 05:23:12;;;;;;;2.43;2.33;;;;;;;11.00;94.37;95957.81;4250530;33;20194;-62
2022/10/13 05:25:39;;;;;;;2.00;1.90;;;;;;;10.82;94.92;95949.72;4336119;33;20181;-62
2022/10/13 05:28:07;;;;;;;2.33;2.13;;;;;;;10.98;94.75;95956.50;4324593;33;20194;-63
2022/10/13 05:30:33;;;;;;;2.33;2.23;;;;;;;10.72;95.56;95957.78;4309823;33;20224;-62
2022/10/13 05:33:00;;;;;;;3.60;3.30;;;;;;;10.91;95.54;95962.13;4311166;33;20185;-62
2022/10/13 05:35:25;;;;;;;4.57;2.60;;;;;;;11.05;94.87;95964.13;4339921;33;20193;-62
2022/10/13 05:37:55;;;;;;;2.50;2.30;;;;;;;10.90;95.44;95957.09;4309964;33;20194;-63
2022/10/13 05:40:20;;;;;;;2.13;2.03;;;;;;;11.08;95.10;95961.69;4322280;32;20322;-63
2022/10/13 05:42:51;;;;;;;3.80;3.50;;;;;;;10.91;96.05;95958.69;4322029;32;20276;-63
2022/10/13 05:45:18;;;;;;;2.63;2.53;;;;;;;11.00;95.43;95957.00;4327321;32;20221;-63
2022/10/13 05:47:45;;;;;;;8.27;3.17;;;;;;;11.02;95.44;95958.28;4308873;32;20233;-53
2022/10/13 05:50:13;;;;;;;5.47;2.20;;;;;;;12.06;100.00;95947.03;4327569;33;20268;-53
2022/10/13 05:52:46;;;;;;;4.03;3.73;;;;;;;13.71;100.00;95954.47;4323964;32;20190;-56
2022/10/13 05:55:16;;;;;;;2.00;1.90;;;;;;;14.11;100.00;95941.38;4337171;32;20247;-54
2022/10/13 05:58:00;;;;;;;2.77;2.50;;;;;;;14.10;100.00;95950.47;4331345;32;20189;-54
2022/10/13 06:00:28;;;;;;;2.67;2.53;;;;;;;14.62;94.99;95950.91;4302735;33;20235;-52
2022/10/13 06:03:14;;;;;;;5.03;2.70;;;;;;;14.77;90.25;95950.53;4321252;33;20189;-51
2022/10/13 06:05:42;;;;;;;4.03;2.10;;;;;;;15.11;86.99;95947.31;4291999;33;20212;-54
2022/10/13 06:08:09;;;;;;;1.47;1.37;;;;;;;15.31;83.75;95952.13;4271302;33;20295;-53
2022/10/13 06:10:36;;;;;;;2.13;2.03;;;;;;;15.50;82.69;95957.25;4323084;32;20189;-53
2022/10/13 06:13:02;;;;;;;1.90;1.83;;;;;;;15.43;81.92;95963.03;4308151;32;20200;-52
2022/10/13 06:15:27;;;;;;;2.10;2.00;;;;;;;15.53;81.05;95953.97;4343052;32;20200;-50
2022/10/13 06:17:53;;;;;;;1.47;1.47;;;;;;;15.52;81.16;95955.06;4290005;33;20276;-51
2022/10/13 06:20:19;;;;;;;3.23;2.93;;;;;;;15.21;79.80;95957.72;4296224;33;20193;-54
2022/10/13 06:22:45;;;;;;;2.60;2.50;;;;;;;15.27;80.40;95955.72;4304294;32;20209;-52
2022/10/13 06:25:11;;;;;;;1.87;1.77;;;;;;;15.38;80.66;95957.06;4294215;33;20182;-54
2022/10/13 06:27:38;;;;;;;1.83;1.73;;;;;;;15.41;80.35;95956.41;4313756;32;20230;-56
2022/10/13 06:30:07;;;;;;;1.83;1.73;;;;;;;15.40;79.97;95955.63;4327524;32;20208;-53
2022/10/13 06:32:34;;;;;;;2.33;2.20;;;;;;;15.57;79.70;95954.16;4302136;33;20225;-56
2022/10/13 06:35:06;;;;;;;2.53;2.33;;;;;;;15.49;79.41;95953.00;4322090;32;20186;-56
2022/10/13 06:37:33;;;;;;;1.90;1.80;;;;;;;15.51;79.24;95956.16;4322903;32;20284;-53
2022/10/13 06:40:05;;;;;;;2.77;2.57;;;;;;;15.50;79.09;95954.56;4331490;33;20200;-55
2022/10/13 06:42:32;;;;;;;1.87;1.77;;;;;;;15.55;79.31;95961.69;4291086;32;20284;-55
2022/10/13 06:45:01;;;;;;;1.63;1.63;;;;;;;15.51;79.22;95955.38;4330491;32;20185;-53
2022/10/13 06:47:29;;;;;;;2.00;1.90;;;;;;;15.68;85.32;95955.47;4339328;32;20268;-54
2022/10/13 06:49:55;;;;;;;3.70;3.00;;;;;;;15.79;88.75;95954.09;4294194;33;20277;-62
2022/10/13 06:52:20;;;;;;;1.83;1.83;;;;;;;15.77;87.33;95958.97;4310350;33;20277;-62
2022/10/13 06:54:45;;;;;;;2.40;2.30;;;;;;;15.25;79.53;95955.25;4294038;33;20200;-61
2022/10/13 06:57:11;;;;;;;2.77;2.67;;;;;;;14.65;81.55;95950.31;4274846;33;20205;-63
2022/10/13 06:59:37;;;;;;;2.27;2.17;;;;;;;14.23;83.56;95954.19;4315157;32;20197;-63
2022/10/13 07:02:03;;;;;;;3.63;3.43;;;;;;;13.90;85.61;95956.22;4311735;33;20233;-62
2022/10/13 07:04:33;;;;;;;2.77;2.57;;;;;;;13.79;86.42;95949.50;4296545;33;20228;-61
2022/10/13 07:06:59;;;;;;;3.13;2.93;;;;;;;13.63;87.63;95960.47;4326226;33;20301;-62
2022/10/13 07:09:26;;;;;;;2.27;2.17;;;;;;;13.60;88.25;95958.41;4345018;32;20248;-62
2022/10/13 07:11:51;;;;;;;3.70;2.80;;;;;;;13.50;88.86;95947.94;4321551;32;20200;-61
2022/10/13 07:14:18;;;;;;;2.90;2.80;;;;;;;13.30;90.00;95959.75;4338177;32;20197;-61
2022/10/13 07:16:48;;;;;;;3.80;3.50;;;;;;;13.29;90.17;95954.72;4326166;32;20181;-61
2022/10/13 07:19:14;;;;;;;2.67;2.57;;;;;;;13.14;91.17;95953.09;4318396;32;20288;-61
2022/10/13 07:21:40;;;;;;;3.23;2.57;;;;;;;13.22;91.35;95947.13;4286762;33;20190;-61
2022/10/13 07:24:06;;;;;;;4.77;3.33;;;;;;;13.31;91.27;95950.66;4320873;32;20300;-61
2022/10/13 07:26:33;;;;;;;2.77;2.67;;;;;;;13.13;92.19;95954.16;4334679;32;20185;-62
2022/10/13 07:29:00;;;;;;;2.33;2.23;;;;;;;13.17;92.61;95954.41;4299942;32;20186;-62
2022/10/13 07:31:26;;;;;;;2.90;2.73;;;;;;;13.11;93.12;95948.34;4322466;32;20197;-60
2022/10/13 07:33:52;;;;;;;3.03;2.83;;;;;;;13.14;93.40;95954.97;4299966;32;20237;-62
2022/10/13 07:36:17;;;;;;;3.23;3.10;;;;;;;13.07;93.69;95950.81;4323885;32;20209;-61
2022/10/13 07:38:45;;;;;;;3.40;2.73;;;;;;;13.22;93.59;95947.13;4284501;33;20233;-62
2022/10/13 07:41:12;;;;;;;3.30;3.10;;;;;;;13.39;93.23;95946.53;4248033;33;20256;-62
2022/10/13 07:43:38;;;;;;;2.07;2.07;;;;;;;13.31;93.39;95942.66;4289034;33;20186;-63
2022/10/13 07:46:04;;;;;;;3.07;2.87;;;;;;;13.56;93.17;95941.41;4304475;33;20253;-62
2022/10/13 07:48:31;;;;;;;2.17;2.07;;;;;;;13.62;92.49;95940.22;4304874;32;20189;-62
2022/10/13 07:50:58;;;;;;;14.20;4.70;;;;;;;13.88;92.37;95942.38;4317935;33;20193;-62
2022/10/13 07:53:25;;;;;;;2.73;2.63;;;;;;;13.95;91.72;95942.75;4304595;33;20201;-61
2022/10/13 07:55:52;;;;;;;3.37;3.17;;;;;;;14.12;90.58;95937.59;4285985;33;20356;-61
2022/10/13 07:58:22;;;;;;;3.00;2.80;;;;;;;14.07;90.95;95937.72;4314183;32;20195;-61
2022/10/13 08:00:59;;;;;;;4.03;3.80;;;;;;;14.02;90.75;95943.94;4338763;32;20216;-63
2022/10/13 08:03:28;;;;;;;3.33;3.20;;;;;;;14.17;89.90;95939.34;4322022;32;20185;-62
2022/10/13 08:05:58;;;;;;;4.13;3.93;;;;;;;14.21;89.42;95935.78;4323318;32;20204;-62
2022/10/13 08:08:23;;;;;;;3.40;3.20;;;;;;;14.06;89.87;95936.91;4298577;32;20180;-63
2022/10/13 08:10:49;;;;;;;4.40;4.10;;;;;;;14.00;90.16;95934.66;4330243;32;20203;-61
2022/10/13 08:13:17;;;;;;;4.03;3.67;;;;;;;13.99;90.26;95933.06;4305184;32;20198;-60
2022/10/13 08:15:44;;;;;;;3.07;2.97;;;;;;;14.10;89.75;95929.13;4300279;33;20193;-60
2022/10/13 08:18:13;;;;;;;4.63;3.90;;;;;;;14.04;89.82;95927.62;4301782;33;20220;-60
2022/10/13 08:20:41;;;;;;;3.83;3.63;;;;;;;13.71;91.16;95922.47;4292862;32;20182;-60
2022/10/13 08:23:09;;;;;;;3.00;2.80;;;;;;;13.76;90.85;95919.66;4296212;33;20220;-61
2022/10/13 08:25:40;;;;;;;4.20;3.90;;;;;;;13.88;90.59;95923.72;4291697;32;20187;-62
2022/10/13 08:28:15;;;;;;;4.27;3.70;;;;;;;13.97;90.21;95929.91;4315262;33;20204;-61
2022/10/13 08:30:41;;;;;;;8.30;4.30;;;;;;;13.65;91.34;95931.63;4312952;32;20185;-60
2022/10/13 08:33:06;;;;;;;3.73;3.43;;;;;;;13.44;92.59;95930.47;4326594;32;20264;-61
2022/10/13 08:35:32;;;;;;;4.80;4.40;;;;;;;13.40;92.97;95930.25;4297449;33;20250;-62
2022/10/13 08:37:57;;;;;;;3.77;3.50;;;;;;;13.45;93.57;95939.25;4340108;32;20181;-62
2022/10/13 08:40:27;;;;;;;3.07;2.93;;;;;;;13.48;93.53;95939.44;4281744;32;20205;-61
2022/10/13 08:42:53;;;;;;;3.30;3.10;;;;;;;13.31;94.00;95945.34;4293981;33;20263;-61
2022/10/13 08:45:24;;;;;;;4.23;3.93;;;;;;;13.27;94.62;95940.91;4296264;33;20272;-61
2022/10/13 08:48:05;;;;;;;3.10;2.90;;;;;;;13.15;94.76;95941.38;4316066;32;21358;-61
2022/10/13 08:50:35;;;;;;;3.20;3.00;;;;;;;13.17;94.94;95939.22;4334157;32;20247;-61
2022/10/13 08:53:30;;;;;;;3.73;3.10;;;;;;;13.23;95.29;95937.25;4325339;32;20186;-61
2022/10/13 08:56:07;;;;;;;5.47;2.80;;;;;;;13.04;96.08;95935.41;4287515;33;20301;-62
2022/10/13 08:58:36;;;;;;;4.17;3.87;;;;;;;13.47;94.86;95937.87;4283950;33;20264;-61
2022/10/13 09:01:34;;;;;;;3.73;3.53;;;;;;;13.53;94.25;95930.53;4310960;33;20186;-63
2022/10/13 09:04:35;;;;;;;4.07;3.83;;;;;;;13.61;94.32;95924.53;4319936;32;20252;-60
2022/10/13 09:07:23;;;;;;;3.83;3.53;;;;;;;13.96;93.06;95926.44;4298253;33;20193;-64
2022/10/13 09:09:53;;;;;;;7.80;4.20;;;;;;;14.06;92.46;95918.25;4326970;32;20194;-61
2022/10/13 09:12:23;;;;;;;3.97;3.57;;;;;;;14.19;91.97;95923.84;4319948;33;20211;-60
2022/10/13 09:15:17;;;;;;;3.27;3.07;;;;;;;14.25;91.98;95920.75;4313839;32;20190;-62
2022/10/13 09:17:43;;;;;;;16.13;12.07;;;;;;;14.25;92.47;95928.75;4319718;33;20240;-61
2022/10/13 09:20:26;;;;;;;4.80;4.40;;;;;;;14.12;92.88;95926.94;4302643;33;20193;-60
2022/10/13 09:23:02;;;;;;;8.43;4.47;;;;;;;13.97;93.97;95921.91;4314082;33;20189;-61
2022/10/13 09:25:28;;;;;;;3.17;3.00;;;;;;;14.00;94.00;95913.31;4319961;32;20212;-62
2022/10/13 09:27:57;;;;;;;4.33;3.93;;;;;;;14.21;93.62;95917.09;4319761;32;20193;-59
2022/10/13 09:30:39;;;;;;;3.70;3.43;;;;;;;14.26;93.09;95911.66;4279207;33;20336;-61
2022/10/13 09:33:11;;;;;;;4.43;4.13;;;;;;;14.15;94.36;95907.63;4281121;33;20209;-62
2022/10/13 09:36:00;;;;;;;3.63;3.43;;;;;;;14.18;93.98;95898.25;4333644;33;20190;-61
2022/10/13 09:38:27;;;;;;;3.67;3.47;;;;;;;14.35;93.56;95898.38;4344065;32;20194;-61
2022/10/13 09:41:06;;;;;;;9.57;3.50;;;;;;;14.26;93.82;95905.53;4274126;33;20205;-60
2022/10/13 09:43:53;;;;;;;4.27;3.90;;;;;;;14.49;92.79;95901.81;4331558;33;20224;-61
2022/10/13 09:46:33;;;;;;;3.40;3.13;;;;;;;14.50;92.31;95900.72;4309410;33;20197;-59
2022/10/13 09:49:24;;;;;;;3.63;3.20;;;;;;;14.56;92.68;95904.84;4316615;32;20193;-60
2022/10/13 09:51:51;;;;;;;3.57;3.27;;;;;;;14.58;91.92;95900.00;4300225;33;20216;-60
2022/10/13 09:54:38;;;;;;;3.83;3.13;;;;;;;14.65;91.46;95894.22;4305368;33;20248;-60
2022/10/13 09:57:30;;;;;;;3.43;3.13;;;;;;;14.55;90.70;95895.25;4318880;32;20277;-60
2022/10/13 10:00:20;;;;;;;1.97;1.87;;;;;;;14.40;90.06;95899.09;4345474;32;20210;-59
2022/10/13 10:03:01;;;;;;;5.47;3.47;;;;;;;14.64;89.14;95900.66;4338611;32;20189;-60
2022/10/13 10:05:45;;;;;;;3.23;2.93;;;;;;;14.59;89.56;95908.78;4334373;32;20193;-59
2022/10/13 10:08:38;;;;;;;2.13;2.03;;;;;;;14.63;89.14;95897.19;4315528;32;20200;-59
2022/10/13 10:11:12;;;;;;;2.87;2.67;;;;;;;14.64;89.57;95890.78;4271417;33;20217;-61
2022/10/13 10:13:38;;;;;;;3.00;2.80;;;;;;;14.61;89.14;95890.59;4291153;33;20187;-60
2022/10/13 10:16:30;;;;;;;2.83;2.63;;;;;;;14.51;89.59;95888.97;4301583;33;20284;-60
2022/10/13 10:19:14;;;;;;;3.83;2.90;;;;;;;14.73;89.69;95894.28;4291747;33;20183;-60
2022/10/13 10:21:56;;;;;;;2.77;2.50;;;;;;;14.69;88.28;95897.88;4293453;33;20198;-60
2022/10/13 10:24:44;;;;;;;7.53;2.57;;;;;;;14.49;87.79;95899.16;4313984;33;20292;-60
2022/10/13 10:27:27;;;;;;;2.57;2.40;;;;;;;14.64;87.70;95901.44;4290388;33;20278;-60
2022/10/13 10:30:00;;;;;;;1.53;1.43;;;;;;;14.67;86.84;95905.41;4271387;33;20266;-60
2022/10/13 10:32:53;;;;;;;3.00;2.50;;;;;;;14.55;87.90;95902.50;4308388;33;20208;-59
2022/10/13 10:35:43;;;;;;;2.00;1.83;;;;;;;14.60;87.20;95895.13;4302070;33;20229;-60
2022/10/13 10:38:38;;;;;;;4.47;2.23;;;;;;;14.72;87.33;95897.25;4285244;32;20199;-60
2022/10/13 10:41:40;;;;;;;3.33;2.20;;;;;;;14.55;87.64;95894.50;4292341;33;20229;-60
2022/10/13 10:44:13;;;;;;;3.27;2.97;;;;;;;14.73;87.58;95888.16;4299697;33;20224;-60
2022/10/13 10:46:48;;;;;;;2.73;2.63;;;;;;;14.70;87.24;95886.88;4288852;33;20206;-60
2022/10/13 10:49:33;;;;;;;2.80;2.37;;;;;;;14.99;86.58;95883.72;4255884;33;20208;-60
2022/10/13 10:52:01;;;;;;;2.33;2.23;;;;;;;15.06;85.47;95878.75;4322597;33;20261;-60
2022/10/13 10:54:32;;;;;;;3.40;3.20;;;;;;;14.97;85.58;95879.78;4275387;33;20191;-60
2022/10/13 10:57:24;;;;;;;2.70;2.50;;;;;;;14.77;86.10;95873.88;4309686;33;20204;-60
2022/10/13 11:00:10;;;;;;;4.70;2.27;;;;;;;14.95;85.11;95864.09;4317136;33;20186;-60
2022/10/13 11:02:53;;;;;;;1.53;1.53;;;;;;;15.09;85.65;95872.78;4300854;32;20190;-60
2022/10/13 11:05:18;;;;;;;2.47;2.27;;;;;;;14.97;85.35;95864.53;4303473;33;20193;-59
2022/10/13 11:07:46;;;;;;;1.90;1.80;;;;;;;15.09;85.01;95864.78;4307508;33;20189;-60
2022/10/13 11:10:21;;;;;;;2.47;2.37;;;;;;;15.12;85.64;95850.78;4292700;33;20194;-60
2022/10/13 11:12:56;;;;;;;2.97;2.77;;;;;;;15.15;85.14;95856.63;4295605;33;20202;-59
2022/10/13 11:15:24;;;;;;;1.57;1.50;;;;;;;15.17;84.59;95854.44;4309806;33;20276;-59
2022/10/13 11:17:51;;;;;;;2.40;2.20;;;;;;;15.35;83.75;95843.50;4306661;33;20260;-59
2022/10/13 11:20:28;;;;;;;2.63;2.43;;;;;;;15.31;83.96;95845.19;4314064;33;20198;-61
2022/10/13 11:22:56;;;;;;;2.43;2.30;;;;;;;15.00;84.17;95842.56;4291742;33;20205;-60
2022/10/13 11:25:45;;;;;;;8.63;3.10;;;;;;;15.13;84.54;95839.00;4281314;33;20356;-59
2022/10/13 11:28:41;;;;;;;11.37;2.43;;;;;;;14.97;84.07;95832.47;4299811;33;20185;-60
2022/10/13 11:31:29;;;;;;;2.77;2.57;;;;;;;15.01;84.80;95832.66;4315884;32;20178;-51
2022/10/13 11:34:02;;;;;;;5.27;2.97;;;;;;;15.61;92.48;95824.03;4288360;33;20202;-53
2022/10/13 11:36:56;;;;;;;2.33;2.23;;;;;;;15.86;86.93;95822.50;4303315;33;20336;-50
2022/10/13 11:39:26;;;;;;;2.50;2.00;;;;;;;16.26;88.05;95815.09;4293963;33;20265;-50
2022/10/13 11:42:33;;;;;;;2.33;2.13;;;;;;;16.58;84.71;95813.78;4292017;33;20186;-51
2022/10/13 11:45:08;;;;;;;2.23;2.13;;;;;;;16.83;85.27;95813.72;4313222;33;20233;-52
2022/10/13 11:48:11;;;;;;;2.00;1.90;;;;;;;17.03;82.23;95811.47;4278856;33;20190;-51
2022/10/13 11:50:43;;;;;;;4.00;2.87;;;;;;;17.13;81.38;95809.22;4313052;33;20189;-48
2022/10/13 11:53:23;;;;;;;6.60;2.70;;;;;;;17.25;80.48;95807.75;4282872;33;20190;-51
2022/10/13 11:55:55;;;;;;;13.20;2.07;;;;;;;17.39;80.42;95803.72;4313589;33;20194;-48
2022/10/13 11:58:29;;;;;;;2.67;2.57;;;;;;;17.56;80.14;95792.09;4323849;32;20316;-51